Terminal Aerodrome Forecast
Issued by NWS Grand Forks, ND

Home | Current Version | Previous Version | Text Only | Print | Product List | Glossary On
Versions: 1 2 3 4 5 6 7 8 9 10 11 12 13 14 15 16 17 18 19 20 21 22 23 24
971
FTUS43 KFGF 081730
TAFGFK
TAF
KGFK 081730Z 0818/0918 34015G25KT P6SM -SN OVC025
      TEMPO 0818/0821 1/2SM -SN BLSN BKN015
     FM082300 35015KT P6SM OVC025
     FM090600 34012KT P6SM SCT120=

USA.gov is the U.S. government's official web portal to all federal, state and local government web resources and services.